createdAt,value
2022-09-21T00:00:10.418Z,13.04
2022-09-21T00:01:10.599Z,12.93
2022-09-21T00:02:10.849Z,13.04
2022-09-21T00:03:10.735Z,13.04
2022-09-21T00:04:10.431Z,13.01
2022-09-21T00:05:10.782Z,13
2022-09-21T00:06:10.778Z,12.98
2022-09-21T00:07:10.521Z,13
2022-09-21T00:08:10.538Z,13.01
2022-09-21T00:09:10.275Z,12.91
2022-09-21T00:10:10.603Z,12.91
2022-09-21T00:11:10.885Z,12.97
2022-09-21T00:12:10.592Z,12.91
2022-09-21T00:13:10.650Z,12.91
2022-09-21T00:14:11.147Z,12.93
2022-09-21T00:15:10.399Z,12.87
2022-09-21T00:16:11.075Z,12.93
2022-09-21T00:17:10.957Z,12.86
2022-09-21T00:18:11.001Z,12.91
2022-09-21T00:19:10.512Z,12.86
2022-09-21T00:20:10.751Z,12.86
2022-09-21T00:21:10.486Z,12.86
2022-09-21T00:22:11.047Z,12.94
2022-09-21T00:23:11.092Z,12.87
2022-09-21T00:24:10.820Z,12.93
2022-09-21T00:25:10.838Z,12.78
2022-09-21T00:26:11.041Z,12.9
2022-09-21T00:27:11.051Z,12.79
2022-09-21T00:28:10.804Z,12.8
2022-09-21T00:29:11.091Z,12.85
2022-09-21T00:30:10.894Z,12.8
2022-09-21T00:31:10.604Z,12.78
2022-09-21T00:32:10.972Z,12.78
2022-09-21T00:33:11.150Z,12.76
2022-09-21T00:34:11.380Z,12.79
2022-09-21T00:35:11.196Z,12.79
2022-09-21T00:36:11.204Z,12.8
2022-09-21T00:37:10.971Z,12.87
2022-09-21T00:38:10.987Z,12.79
2022-09-21T00:39:11.001Z,12.75
2022-09-21T00:40:11.432Z,12.68
2022-09-21T00:41:11.294Z,12.78
2022-09-21T00:42:11.304Z,12.8
2022-09-21T00:43:11.331Z,12.78
2022-09-21T00:44:11.087Z,12.72
2022-09-21T00:45:11.114Z,12.72
2022-09-21T00:46:11.321Z,12.68
2022-09-21T00:47:11.154Z,12.75
2022-09-21T00:48:11.470Z,12.73
2022-09-21T00:49:11.783Z,12.68
2022-09-21T00:50:11.202Z,12.75
2022-09-21T00:51:10.957Z,12.79
2022-09-21T00:52:11.236Z,12.76
2022-09-21T00:53:11.245Z,12.75
2022-09-21T00:54:11.520Z,12.73
2022-09-21T00:55:11.544Z,12.68
2022-09-21T00:56:11.307Z,12.7
2022-09-21T00:57:11.567Z,12.78
2022-09-21T00:58:11.596Z,12.75
2022-09-21T00:59:11.682Z,12.67
2022-09-21T01:00:11.376Z,12.68
2022-09-21T01:01:11.788Z,12.75
2022-09-21T01:02:11.718Z,12.62
2022-09-21T01:03:11.686Z,12.6
2022-09-21T01:04:11.607Z,12.67
2022-09-21T01:05:11.716Z,12.6
2022-09-21T01:06:11.728Z,12.6
2022-09-21T01:07:11.494Z,12.6
2022-09-21T01:08:11.772Z,12.57
2022-09-21T01:09:11.939Z,12.62
2022-09-21T01:10:11.550Z,12.57
2022-09-21T01:11:11.301Z,12.65
2022-09-21T01:12:11.833Z,12.6
2022-09-21T01:13:11.849Z,12.6
2022-09-21T01:14:12.568Z,12.6
2022-09-21T01:15:11.890Z,12.61
2022-09-21T01:16:12.087Z,12.61
2022-09-21T01:17:11.962Z,12.57
2022-09-21T01:18:11.986Z,12.58
2022-09-21T01:19:11.951Z,12.55
2022-09-21T01:20:11.739Z,12.54
2022-09-21T01:21:12.394Z,12.55
2022-09-21T01:22:11.756Z,12.58
2022-09-21T01:23:11.511Z,12.5
2022-09-21T01:24:11.788Z,12.54
2022-09-21T01:25:11.802Z,12.57
2022-09-21T01:26:11.825Z,12.5
2022-09-21T01:27:12.097Z,12.55
2022-09-21T01:28:12.124Z,12.49
2022-09-21T01:29:11.898Z,12.43
2022-09-21T01:30:12.141Z,12.43
2022-09-21T01:31:12.218Z,12.55
2022-09-21T01:32:11.921Z,12.42
2022-09-21T01:33:11.947Z,12.42
2022-09-21T01:34:12.408Z,12.5
2022-09-21T01:35:11.971Z,12.4
2022-09-21T01:36:12.015Z,12.4
2022-09-21T01:37:12.263Z,12.49
2022-09-21T01:38:12.033Z,12.43
2022-09-21T01:39:12.309Z,12.42
2022-09-21T01:40:12.245Z,12.47
2022-09-21T01:41:12.084Z,12.45
2022-09-21T01:42:12.100Z,12.46
2022-09-21T01:43:12.375Z,12.42
2022-09-21T01:44:11.875Z,12.42
2022-09-21T01:45:12.405Z,12.43
2022-09-21T01:46:12.496Z,12.43
2022-09-21T01:47:12.182Z,12.39
2022-09-21T01:48:12.454Z,12.4
2022-09-21T01:49:12.496Z,12.43
2022-09-21T01:50:12.538Z,12.47
2022-09-21T01:51:12.513Z,12.39
2022-09-21T01:52:12.290Z,12.43
2022-09-21T01:53:12.291Z,12.45
2022-09-21T01:54:12.567Z,12.35
2022-09-21T01:55:12.575Z,12.32
2022-09-21T01:56:12.341Z,12.31
2022-09-21T01:57:12.353Z,12.42
2022-09-21T01:58:12.369Z,12.42
2022-09-21T01:59:12.133Z,12.4
2022-09-21T02:00:12.413Z,12.32
2022-09-21T02:01:12.956Z,12.36
2022-09-21T02:02:12.908Z,12.31
2022-09-21T02:03:12.453Z,12.37
2022-09-21T02:04:12.896Z,12.42
2022-09-21T02:05:12.795Z,12.37
2022-09-21T02:06:12.914Z,12.39
2022-09-21T02:07:12.531Z,12.36
2022-09-21T02:08:12.964Z,12.35
2022-09-21T02:09:12.566Z,12.24
2022-09-21T02:10:12.576Z,12.35
2022-09-21T02:11:12.340Z,12.31
2022-09-21T02:12:15.690Z,12.31
2022-09-21T02:13:12.634Z,12.22
2022-09-21T02:14:12.907Z,12.29
2022-09-21T02:15:12.760Z,12.32
2022-09-21T02:16:13.105Z,12.32
2022-09-21T02:17:12.694Z,12.27
2022-09-21T02:18:12.972Z,12.27
2022-09-21T02:19:13.084Z,12.25
2022-09-21T02:20:12.892Z,12.31
2022-09-21T02:21:13.356Z,12.29
2022-09-21T02:22:12.937Z,12.22
2022-09-21T02:23:12.911Z,12.31
2022-09-21T02:24:13.109Z,12.18
2022-09-21T02:25:13.097Z,12.31
2022-09-21T02:26:13.106Z,12.24
2022-09-21T02:27:13.131Z,12.31
2022-09-21T02:28:13.137Z,12.28
2022-09-21T02:29:13.162Z,12.29
2022-09-21T02:30:13.178Z,12.17
2022-09-21T02:31:13.059Z,12.25
2022-09-21T02:32:13.208Z,12.17
2022-09-21T02:33:13.233Z,12.13
2022-09-21T02:34:13.321Z,12.2
2022-09-21T02:35:13.010Z,12.15
2022-09-21T02:36:13.028Z,12.21
2022-09-21T02:37:13.036Z,12.2
2022-09-21T02:38:13.103Z,12.22
2022-09-21T02:39:12.868Z,12.17
2022-09-21T02:40:13.290Z,12.12
2022-09-21T02:41:13.363Z,12.18
2022-09-21T02:42:13.381Z,12.15
2022-09-21T02:43:12.900Z,12.12
2022-09-21T02:44:13.170Z,12.17
2022-09-21T02:45:13.432Z,12.15
2022-09-21T02:46:13.670Z,12.09
2022-09-21T02:47:13.210Z,12.15
2022-09-21T02:48:13.484Z,12.15
2022-09-21T02:49:13.262Z,12.04
2022-09-21T02:50:13.265Z,12.1
2022-09-21T02:51:13.027Z,12.1
2022-09-21T02:52:13.553Z,12.13
2022-09-21T02:53:13.313Z,12.13
2022-09-21T02:54:13.383Z,12.06
2022-09-21T02:55:13.606Z,12.09
2022-09-21T02:56:13.387Z,12.09
2022-09-21T02:57:13.386Z,12.13
2022-09-21T02:58:13.403Z,12.1
2022-09-21T02:59:13.412Z,12.09
2022-09-21T03:00:13.173Z,12.13
2022-09-21T03:01:13.558Z,12.02
2022-09-21T03:02:13.342Z,12.1
2022-09-21T03:03:13.741Z,12
2022-09-21T03:04:13.507Z,12.06
2022-09-21T03:05:13.767Z,12
2022-09-21T03:06:13.533Z,12.03
2022-09-21T03:07:13.295Z,12
2022-09-21T03:08:13.827Z,12.04
2022-09-21T03:09:13.325Z,12.03
2022-09-21T03:10:13.899Z,12
2022-09-21T03:11:13.663Z,12.02
2022-09-21T03:12:13.657Z,11.94
2022-09-21T03:13:13.644Z,11.87
2022-09-21T03:14:13.933Z,11.99
2022-09-21T03:15:13.940Z,11.91
2022-09-21T03:16:13.656Z,11.97
2022-09-21T03:17:13.981Z,11.9
2022-09-21T03:18:13.749Z,11.95
2022-09-21T03:19:13.748Z,11.99
2022-09-21T03:20:13.507Z,11.9
2022-09-21T03:21:14.348Z,12
2022-09-21T03:22:14.056Z,11.94
2022-09-21T03:23:13.586Z,11.94
2022-09-21T03:24:14.104Z,11.91
2022-09-21T03:25:13.873Z,11.84
2022-09-21T03:26:14.172Z,11.86
2022-09-21T03:27:13.633Z,11.86
2022-09-21T03:28:14.191Z,11.87
2022-09-21T03:29:13.916Z,11.84
2022-09-21T03:30:13.934Z,11.9
2022-09-21T03:31:14.422Z,11.87
2022-09-21T03:32:13.970Z,11.84
2022-09-21T03:33:13.999Z,11.95
2022-09-21T03:34:14.003Z,11.87
2022-09-21T03:35:14.019Z,11.87
2022-09-21T03:36:14.333Z,11.83
2022-09-21T03:37:14.314Z,11.81
2022-09-21T03:38:14.330Z,11.84
2022-09-21T03:39:14.355Z,11.84
2022-09-21T03:40:14.591Z,11.78
2022-09-21T03:41:14.143Z,11.86
2022-09-21T03:42:14.187Z,11.87
2022-09-21T03:43:14.161Z,11.8
2022-09-21T03:44:14.207Z,11.84
2022-09-21T03:45:14.192Z,11.81
2022-09-21T03:46:14.375Z,11.81
2022-09-21T03:47:14.222Z,11.84
2022-09-21T03:48:14.240Z,11.73
2022-09-21T03:49:14.260Z,11.86
2022-09-21T03:50:15.086Z,11.75
2022-09-21T03:51:14.292Z,11.84
2022-09-21T03:52:14.304Z,11.84
2022-09-21T03:53:14.073Z,11.78
2022-09-21T03:54:14.607Z,11.73
2022-09-21T03:55:14.363Z,11.75
2022-09-21T03:56:14.382Z,11.73
2022-09-21T03:57:14.663Z,11.77
2022-09-21T03:58:14.721Z,11.8
2022-09-21T03:59:18.432Z,11.7
2022-09-21T04:00:14.467Z,11.84
2022-09-21T04:01:14.881Z,11.72
2022-09-21T04:02:14.819Z,11.73
2022-09-21T04:03:14.502Z,11.69
2022-09-21T04:04:14.513Z,11.73
2022-09-21T04:05:14.792Z,11.72
2022-09-21T04:06:14.545Z,11.78
2022-09-21T04:07:14.822Z,11.77
2022-09-21T04:08:14.901Z,11.73
2022-09-21T04:09:14.605Z,11.72
2022-09-21T04:10:14.871Z,11.66
2022-09-21T04:11:14.643Z,11.75
2022-09-21T04:12:14.902Z,11.73
2022-09-21T04:13:14.670Z,11.66
2022-09-21T04:14:14.992Z,11.69
2022-09-21T04:15:14.443Z,11.66
2022-09-21T04:16:14.906Z,11.69
2022-09-21T04:17:15.000Z,11.72
2022-09-21T04:18:15.013Z,11.72
2022-09-21T04:19:15.027Z,11.69
2022-09-21T04:20:15.047Z,11.65
2022-09-21T04:21:14.844Z,11.6
2022-09-21T04:22:14.822Z,11.65
2022-09-21T04:23:14.838Z,11.59
2022-09-21T04:24:14.857Z,11.57
2022-09-21T04:25:15.167Z,11.59
2022-09-21T04:26:15.288Z,11.51
2022-09-21T04:27:14.651Z,11.62
2022-09-21T04:28:15.279Z,11.6
2022-09-21T04:29:15.090Z,11.55
2022-09-21T04:30:15.368Z,11.54
2022-09-21T04:31:15.254Z,11.54
2022-09-21T04:32:15.312Z,11.62
2022-09-21T04:33:15.055Z,11.62
2022-09-21T04:34:14.769Z,11.65
2022-09-21T04:35:15.314Z,11.5
2022-09-21T04:36:15.048Z,11.59
2022-09-21T04:37:14.827Z,11.55
2022-09-21T04:38:14.833Z,11.62
2022-09-21T04:39:15.375Z,11.54
2022-09-21T04:40:15.456Z,11.57
2022-09-21T04:41:15.142Z,11.55
2022-09-21T04:42:15.353Z,11.54
2022-09-21T04:43:17.657Z,11.55
2022-09-21T04:44:15.450Z,11.62
2022-09-21T04:45:15.464Z,11.54
2022-09-21T04:46:15.511Z,11.55
2022-09-21T04:47:15.291Z,11.55
2022-09-21T04:48:15.537Z,11.51
2022-09-21T04:49:15.551Z,11.55
2022-09-21T04:50:15.577Z,11.5
2022-09-21T04:51:15.577Z,11.52
2022-09-21T04:52:21.034Z,11.45
2022-09-21T04:53:15.339Z,11.54
2022-09-21T04:54:15.359Z,11.51
2022-09-21T04:55:15.118Z,11.45
2022-09-21T04:56:15.131Z,11.5
2022-09-21T04:57:15.414Z,11.51
2022-09-21T04:58:15.685Z,11.52
2022-09-21T04:59:15.187Z,11.48
2022-09-21T05:00:15.468Z,11.54
2022-09-21T05:01:15.708Z,11.47
2022-09-21T05:02:15.533Z,11.41
2022-09-21T05:03:15.661Z,11.54
2022-09-21T05:04:15.908Z,11.43
2022-09-21T05:05:15.540Z,11.48
2022-09-21T05:06:15.862Z,11.47
2022-09-21T05:07:15.577Z,11.41
2022-09-21T05:08:15.846Z,11.44
2022-09-21T05:09:15.606Z,11.37
2022-09-21T05:10:15.378Z,11.41
2022-09-21T05:11:15.882Z,11.45
2022-09-21T05:12:15.657Z,11.41
2022-09-21T05:13:21.515Z,11.43
2022-09-21T05:14:15.958Z,11.36
2022-09-21T05:15:15.962Z,11.41
2022-09-21T05:16:15.728Z,11.41
2022-09-21T05:17:15.487Z,11.4
2022-09-21T05:18:16.070Z,11.36
2022-09-21T05:19:16.036Z,11.36
2022-09-21T05:20:15.820Z,11.4
2022-09-21T05:21:16.035Z,11.37
2022-09-21T05:22:16.140Z,11.37
2022-09-21T05:23:21.184Z,11.43
2022-09-21T05:24:15.613Z,11.36
2022-09-21T05:25:15.871Z,11.33
2022-09-21T05:26:16.151Z,11.37
2022-09-21T05:27:15.645Z,11.37
2022-09-21T05:28:16.209Z,11.48
2022-09-21T05:29:15.945Z,11.43
2022-09-21T05:30:16.220Z,11.4
2022-09-21T05:31:22.815Z,11.33
2022-09-21T05:32:15.989Z,11.36
2022-09-21T05:33:15.751Z,11.36
2022-09-21T05:34:16.139Z,11.41
2022-09-21T05:35:16.043Z,11.4
2022-09-21T05:36:16.094Z,11.37
2022-09-21T05:37:16.333Z,11.43
2022-09-21T05:38:16.354Z,11.43
2022-09-21T05:39:16.107Z,11.37
2022-09-21T05:40:16.341Z,11.32
2022-09-21T05:41:16.143Z,11.43
2022-09-21T05:42:16.159Z,11.41
2022-09-21T05:43:16.435Z,11.4
2022-09-21T05:44:16.448Z,11.43
2022-09-21T05:45:16.476Z,11.4
2022-09-21T05:46:16.069Z,11.41
2022-09-21T05:47:16.506Z,11.43
2022-09-21T05:48:16.278Z,11.45
2022-09-21T05:49:16.297Z,11.37
2022-09-21T05:50:16.357Z,11.44
2022-09-21T05:51:16.566Z,11.44
2022-09-21T05:52:16.395Z,11.43
2022-09-21T05:53:16.605Z,11.45
2022-09-21T05:54:16.621Z,11.48
2022-09-21T05:55:16.381Z,11.43
2022-09-21T05:56:16.398Z,11.44
2022-09-21T05:57:16.414Z,11.54
2022-09-21T05:58:16.430Z,11.5
2022-09-21T05:59:16.451Z,11.55
2022-09-21T06:00:16.477Z,11.51
2022-09-21T06:01:16.674Z,11.55
2022-09-21T06:02:16.937Z,11.54
2022-09-21T06:03:22.232Z,11.57
2022-09-21T06:04:16.270Z,11.55
2022-09-21T06:05:16.557Z,11.54
2022-09-21T06:06:16.864Z,11.52
2022-09-21T06:07:16.589Z,11.52
2022-09-21T06:08:16.651Z,11.57
2022-09-21T06:09:16.619Z,11.59
2022-09-21T06:10:16.636Z,11.55
2022-09-21T06:11:16.908Z,11.51
2022-09-21T06:12:16.401Z,11.59
2022-09-21T06:13:16.692Z,11.52
2022-09-21T06:14:16.957Z,11.63
2022-09-21T06:15:16.460Z,11.63
2022-09-21T06:16:17.135Z,11.57
2022-09-21T06:17:16.998Z,11.63
2022-09-21T06:18:22.033Z,11.69
2022-09-21T06:19:16.779Z,11.72
2022-09-21T06:20:17.060Z,11.69
2022-09-21T06:21:17.029Z,11.68
2022-09-21T06:22:16.883Z,11.66
2022-09-21T06:23:17.706Z,11.72
2022-09-21T06:24:17.171Z,11.73
2022-09-21T06:25:17.139Z,11.77
2022-09-21T06:26:16.902Z,11.8
2022-09-21T06:27:16.920Z,11.68
2022-09-21T06:28:16.679Z,11.8
2022-09-21T06:29:16.696Z,11.73
2022-09-21T06:30:16.981Z,11.77
2022-09-21T06:31:16.788Z,11.78
2022-09-21T06:32:17.259Z,11.86
2022-09-21T06:33:17.298Z,11.84
2022-09-21T06:34:16.787Z,11.8
2022-09-21T06:35:17.315Z,11.87
2022-09-21T06:36:17.331Z,11.86
2022-09-21T06:37:17.092Z,11.87
2022-09-21T06:38:17.571Z,11.87
2022-09-21T06:39:17.125Z,11.88
2022-09-21T06:40:17.614Z,11.88
2022-09-21T06:41:23.826Z,11.87
2022-09-21T06:42:16.927Z,11.88
2022-09-21T06:43:17.452Z,11.87
2022-09-21T06:44:17.468Z,11.91
2022-09-21T06:45:17.331Z,12.03
2022-09-21T06:46:17.430Z,11.91
2022-09-21T06:47:17.005Z,11.91
2022-09-21T06:48:17.436Z,12
2022-09-21T06:49:17.549Z,12
2022-09-21T06:50:17.212Z,12
2022-09-21T06:51:17.221Z,11.97
2022-09-21T06:52:17.738Z,12
2022-09-21T06:53:17.501Z,12.04
2022-09-21T06:54:17.867Z,12.09
2022-09-21T06:55:17.649Z,12.02
2022-09-21T06:56:17.484Z,12.1
2022-09-21T06:57:17.215Z,12.07
2022-09-21T06:58:17.463Z,12.1
2022-09-21T06:59:17.520Z,12.15
2022-09-21T07:00:17.221Z,12.07
2022-09-21T07:01:17.946Z,12.06
2022-09-21T07:02:17.912Z,12.12
2022-09-21T07:03:17.273Z,12.18
2022-09-21T07:04:19.933Z,12.24
2022-09-21T07:05:17.567Z,12.13
2022-09-21T07:06:17.576Z,12.24
2022-09-21T07:07:17.590Z,12.28
2022-09-21T07:10:25.510Z,12.25
2022-09-21T07:11:19.650Z,12.28
2022-09-21T07:12:19.645Z,12.24
2022-09-21T07:13:19.411Z,12.29
2022-09-21T07:14:19.419Z,12.28
2022-09-21T07:15:19.692Z,12.35
2022-09-21T07:16:19.878Z,12.37
2022-09-21T07:17:20.997Z,12.39
2022-09-21T07:18:19.224Z,12.35
2022-09-21T07:19:19.757Z,12.46
2022-09-21T07:20:19.520Z,12.4
2022-09-21T07:21:19.588Z,12.45
2022-09-21T07:22:19.801Z,12.55
2022-09-21T07:23:19.821Z,12.5
2022-09-21T07:24:19.613Z,12.5
2022-09-21T07:25:19.864Z,12.5
2022-09-21T07:26:19.727Z,12.57
2022-09-21T07:27:19.933Z,12.58
2022-09-21T07:28:19.917Z,12.55
2022-09-21T07:29:19.673Z,12.75
2022-09-21T07:30:19.949Z,12.72
2022-09-21T07:31:19.871Z,12.62
2022-09-21T07:32:19.728Z,12.73
2022-09-21T07:33:20.006Z,12.75
2022-09-21T07:34:20.012Z,12.68
2022-09-21T07:35:20.038Z,12.58
2022-09-21T07:36:19.793Z,12.82
2022-09-21T07:37:19.821Z,12.78
2022-09-21T07:38:20.102Z,12.78
2022-09-21T07:39:20.099Z,12.87
2022-09-21T07:40:25.282Z,12.93
2022-09-21T07:41:19.624Z,12.91
2022-09-21T07:42:19.938Z,12.86
2022-09-21T07:43:20.199Z,12.94
2022-09-21T07:44:20.194Z,12.94
2022-09-21T07:45:19.992Z,12.95
2022-09-21T07:46:19.717Z,13.04
2022-09-21T07:47:20.235Z,13.01
2022-09-21T07:48:19.747Z,13.04
2022-09-21T07:49:20.022Z,12.98
2022-09-21T07:50:20.302Z,13.09
2022-09-21T07:51:20.314Z,13.03
2022-09-21T07:52:20.095Z,13.13
2022-09-21T07:53:20.549Z,13.2
2022-09-21T07:54:20.371Z,13.13
2022-09-21T07:55:20.387Z,13.13
2022-09-21T07:56:20.417Z,13.19
2022-09-21T07:57:20.163Z,13.11
2022-09-21T07:58:20.552Z,13.23
2022-09-21T07:59:20.223Z,13.19
2022-09-21T08:00:20.469Z,13.23
2022-09-21T08:01:20.777Z,13.27
2022-09-21T08:02:20.347Z,13.2
2022-09-21T08:03:20.538Z,13.22
2022-09-21T08:04:20.286Z,13.2
2022-09-21T08:05:20.293Z,13.19
2022-09-21T08:06:20.320Z,13.25
2022-09-21T08:07:20.071Z,13.16
2022-09-21T08:08:20.098Z,13.19
2022-09-21T08:09:20.624Z,13.16
2022-09-21T08:10:20.131Z,13.28
2022-09-21T08:11:20.406Z,13.15
2022-09-21T08:12:20.173Z,13.15
2022-09-21T08:13:20.718Z,13.19
2022-09-21T08:14:26.451Z,13.23
2022-09-21T08:15:52.525Z,13.25
2022-09-21T08:16:20.820Z,13.16
2022-09-21T08:17:20.834Z,13.19
2022-09-21T08:18:20.784Z,13.31
2022-09-21T08:19:20.813Z,13.3
2022-09-21T08:20:20.570Z,13.25
2022-09-21T08:21:21.251Z,13.3
2022-09-21T08:22:20.849Z,13.23
2022-09-21T08:23:20.619Z,13.3
2022-09-21T08:24:20.636Z,13.27
2022-09-21T08:25:20.652Z,13.22
2022-09-21T08:26:20.714Z,13.33
2022-09-21T08:27:20.952Z,13.23
2022-09-21T08:28:20.452Z,13.33
2022-09-21T08:29:20.986Z,13.28
2022-09-21T08:30:20.792Z,13.31
2022-09-21T08:31:21.328Z,13.3
2022-09-21T08:32:53.544Z,13.22
2022-09-21T08:33:20.805Z,13.3
2022-09-21T08:34:20.813Z,13.42
2022-09-21T08:35:21.096Z,13.37
2022-09-21T08:36:21.104Z,13.27
2022-09-21T08:37:21.125Z,13.33
2022-09-21T08:38:21.135Z,13.42
2022-09-21T08:39:21.151Z,13.37
2022-09-21T08:40:21.122Z,13.44
2022-09-21T08:41:20.958Z,13.44
2022-09-21T08:42:21.209Z,13.42
2022-09-21T08:43:21.227Z,13.33
2022-09-21T08:44:20.993Z,13.28
2022-09-21T08:45:21.015Z,13.39
2022-09-21T08:46:21.567Z,13.33
2022-09-21T08:47:21.327Z,13.27
2022-09-21T08:48:25.281Z,13.42
2022-09-21T08:49:21.080Z,13.41
2022-09-21T08:50:21.091Z,13.47
2022-09-21T08:51:21.609Z,13.46
2022-09-21T08:52:22.153Z,13.42
2022-09-21T08:53:21.412Z,13.42
2022-09-21T08:54:21.418Z,13.46
2022-09-21T08:55:22.426Z,13.41
2022-09-21T08:56:21.458Z,13.47
2022-09-21T08:57:21.227Z,13.5
2022-09-21T08:58:21.499Z,13.47
2022-09-21T08:59:21.271Z,13.49
2022-09-21T09:00:21.279Z,13.42
2022-09-21T09:01:21.786Z,13.49
2022-09-21T09:02:21.845Z,13.41
2022-09-21T09:03:21.604Z,13.52
2022-09-21T09:04:21.605Z,13.41
2022-09-21T09:05:21.103Z,13.53
2022-09-21T09:06:26.849Z,13.44
2022-09-21T09:07:21.391Z,13.54
2022-09-21T09:08:21.412Z,13.53
2022-09-21T09:09:21.429Z,13.46
2022-09-21T09:10:21.753Z,13.53
2022-09-21T09:11:21.216Z,13.42
2022-09-21T09:12:21.231Z,13.56
2022-09-21T09:13:21.502Z,13.53
2022-09-21T09:14:21.523Z,13.57
2022-09-21T09:15:21.794Z,13.53
2022-09-21T09:16:22.071Z,13.54
2022-09-21T09:17:21.577Z,13.67
2022-09-21T09:18:21.910Z,13.56
2022-09-21T09:19:21.901Z,13.59
2022-09-21T09:20:21.977Z,13.57
2022-09-21T09:21:34.987Z,13.62
2022-09-21T09:22:21.672Z,13.53
2022-09-21T09:23:21.939Z,13.57
2022-09-21T09:24:21.963Z,13.59
2022-09-21T09:25:21.974Z,13.59
2022-09-21T09:26:21.742Z,13.57
2022-09-21T09:27:21.500Z,13.67
2022-09-21T09:28:21.776Z,13.54
2022-09-21T09:29:21.783Z,13.63
2022-09-21T09:30:21.883Z,13.54
2022-09-21T09:31:22.280Z,13.7
2022-09-21T09:32:22.104Z,13.6
2022-09-21T09:33:21.852Z,13.72
2022-09-21T09:34:22.189Z,13.7
2022-09-21T09:35:21.913Z,13.78
2022-09-21T09:36:59.810Z,13.79
2022-09-21T09:37:21.930Z,13.75
2022-09-21T09:38:22.205Z,13.75
2022-09-21T09:39:21.971Z,13.7
2022-09-21T09:40:22.173Z,13.81
2022-09-21T09:41:22.259Z,13.72
2022-09-21T09:42:22.287Z,13.75
2022-09-21T09:43:22.294Z,13.75
2022-09-21T09:44:22.308Z,13.74
2022-09-21T09:45:26.314Z,13.77
2022-09-21T09:46:22.279Z,13.77
2022-09-21T09:47:22.110Z,13.83
2022-09-21T09:48:22.126Z,13.92
2022-09-21T09:49:22.139Z,13.9
2022-09-21T09:50:22.493Z,13.87
2022-09-21T09:51:22.477Z,13.87
2022-09-21T09:52:21.943Z,13.86
2022-09-21T09:53:22.218Z,14.04
2022-09-21T09:54:22.235Z,13.95
2022-09-21T09:55:22.259Z,14
2022-09-21T09:56:22.553Z,13.96
2022-09-21T09:57:22.295Z,14.03
2022-09-21T09:58:22.334Z,13.97
2022-09-21T09:59:22.338Z,13.99
2022-09-21T10:00:22.598Z,14
2022-09-21T10:01:22.325Z,14.05
2022-09-21T10:02:22.636Z,14.07
2022-09-21T10:03:22.663Z,14.04
2022-09-21T10:04:22.491Z,14.04
2022-09-21T10:05:22.439Z,14.03
2022-09-21T10:06:22.831Z,14.08
2022-09-21T10:07:22.761Z,14.1
2022-09-21T10:08:22.484Z,14.05
2022-09-21T10:09:22.502Z,14.17
2022-09-21T10:10:22.528Z,14.17
2022-09-21T10:11:22.543Z,14.12
2022-09-21T10:12:22.878Z,14.18
2022-09-21T10:13:23.300Z,14.18
2022-09-21T10:14:22.850Z,14.18
2022-09-21T10:15:22.617Z,14.2
2022-09-21T10:16:23.052Z,14.12
2022-09-21T10:17:22.648Z,14.23
2022-09-21T10:18:22.918Z,14.28
2022-09-21T10:19:22.945Z,14.28
2022-09-21T10:20:22.969Z,14.32
2022-09-21T10:21:22.974Z,14.25
2022-09-21T10:22:22.790Z,14.28
2022-09-21T10:23:23.047Z,14.4
2022-09-21T10:24:23.068Z,14.36
2022-09-21T10:25:22.797Z,14.29
2022-09-21T10:26:22.804Z,14.36
2022-09-21T10:27:22.841Z,14.35
2022-09-21T10:28:22.850Z,14.29
2022-09-21T10:29:23.136Z,14.43
2022-09-21T10:30:22.902Z,14.4
2022-09-21T10:31:23.050Z,14.3
2022-09-21T10:32:22.925Z,14.33
2022-09-21T10:33:23.210Z,14.44
2022-09-21T10:34:22.953Z,14.4
2022-09-21T10:35:23.238Z,14.43
2022-09-21T10:36:23.244Z,14.47
2022-09-21T10:37:23.018Z,14.41
2022-09-21T10:38:26.963Z,14.47
2022-09-21T10:39:23.078Z,14.48
2022-09-21T10:40:23.428Z,14.48
2022-09-21T10:41:23.088Z,14.48
2022-09-21T10:42:23.104Z,14.5
2022-09-21T10:43:24.111Z,14.58
2022-09-21T10:44:23.403Z,14.62
2022-09-21T10:45:23.154Z,14.59
2022-09-21T10:46:23.686Z,14.55
2022-09-21T10:47:23.195Z,14.55
2022-09-21T10:48:23.210Z,14.63
2022-09-21T10:49:23.229Z,14.53
2022-09-21T10:50:23.245Z,14.59
2022-09-21T10:51:23.020Z,14.55
2022-09-21T10:52:23.548Z,14.58
2022-09-21T10:53:23.301Z,14.65
2022-09-21T10:54:23.637Z,14.6
2022-09-21T10:55:23.632Z,14.7
2022-09-21T10:56:23.770Z,14.58
2022-09-21T10:57:23.636Z,14.68
2022-09-21T10:58:23.648Z,14.63
2022-09-21T10:59:23.671Z,14.59
2022-09-21T11:00:23.717Z,14.63
2022-09-21T11:01:23.633Z,14.6
2022-09-21T11:02:23.903Z,14.72
2022-09-21T11:03:23.494Z,14.73
2022-09-21T11:04:23.798Z,14.66
2022-09-21T11:05:23.273Z,14.68
2022-09-21T11:06:23.798Z,14.69
2022-09-21T11:07:23.824Z,14.69
2022-09-21T11:08:23.588Z,14.69
2022-09-21T11:09:23.602Z,14.72
2022-09-21T11:10:24.045Z,14.77
2022-09-21T11:11:23.915Z,14.78
2022-09-21T11:12:23.397Z,14.84
2022-09-21T11:13:23.925Z,14.82
2022-09-21T11:14:23.954Z,14.73
2022-09-21T11:15:23.790Z,14.91
2022-09-21T11:16:23.955Z,14.81
2022-09-21T11:17:24.006Z,14.86
2022-09-21T11:18:24.021Z,14.89
2022-09-21T11:19:24.035Z,14.86
2022-09-21T11:20:24.107Z,14.89
2022-09-21T11:21:24.169Z,14.94
2022-09-21T11:22:23.848Z,14.85
2022-09-21T11:23:24.113Z,14.92
2022-09-21T11:24:23.924Z,14.96
2022-09-21T11:25:23.887Z,15.03
2022-09-21T11:26:24.216Z,14.97
2022-09-21T11:27:24.213Z,15.04
2022-09-21T11:28:24.203Z,14.94
2022-09-21T11:29:24.344Z,15.09
2022-09-21T11:30:24.365Z,15.02
2022-09-21T11:31:24.322Z,15.03
2022-09-21T11:32:24.027Z,15.09
2022-09-21T11:33:24.063Z,15.1
2022-09-21T11:34:24.326Z,15.14
2022-09-21T11:35:24.340Z,15.14
2022-09-21T11:36:24.102Z,15.18
2022-09-21T11:37:24.382Z,15.17
2022-09-21T11:38:24.141Z,15.22
2022-09-21T11:39:24.160Z,15.31
2022-09-21T11:40:24.677Z,15.27
2022-09-21T11:41:24.459Z,15.36
2022-09-21T11:42:24.261Z,15.31
2022-09-21T11:43:27.576Z,15.42
2022-09-21T11:44:24.263Z,15.35
2022-09-21T11:45:24.008Z,15.4
2022-09-21T11:46:24.409Z,15.35
2022-09-21T11:47:24.306Z,15.39
2022-09-21T11:48:24.607Z,15.46
2022-09-21T11:49:24.598Z,15.46
2022-09-21T11:50:35.578Z,15.51
2022-09-21T11:51:24.126Z,15.57
2022-09-21T11:52:24.404Z,15.52
2022-09-21T11:53:24.414Z,15.58
2022-09-21T11:54:24.699Z,15.55
2022-09-21T11:55:24.717Z,15.64
2022-09-21T11:56:24.470Z,15.58
2022-09-21T11:57:24.759Z,15.59
2022-09-21T11:58:24.824Z,15.67
2022-09-21T11:59:24.560Z,15.64
2022-09-21T12:00:24.571Z,15.7
2022-09-21T12:01:24.577Z,15.65
2022-09-21T12:02:25.554Z,15.68
2022-09-21T12:03:24.874Z,15.79
2022-09-21T12:04:24.650Z,15.8
2022-09-21T12:05:24.912Z,15.8
2022-09-21T12:06:24.923Z,15.75
2022-09-21T12:07:24.427Z,15.83
2022-09-21T12:08:24.971Z,15.91
2022-09-21T12:09:24.966Z,15.82
2022-09-21T12:10:25.000Z,15.86
2022-09-21T12:11:24.770Z,15.95
2022-09-21T12:12:24.782Z,15.92
2022-09-21T12:13:24.795Z,15.94
2022-09-21T12:14:25.192Z,15.95
2022-09-21T12:15:25.043Z,16
2022-09-21T12:16:25.289Z,16.04
2022-09-21T12:17:24.874Z,16.02
2022-09-21T12:18:24.641Z,16.04
2022-09-21T12:19:24.916Z,16.02
2022-09-21T12:20:25.184Z,16.1
2022-09-21T12:21:25.194Z,16.05
2022-09-21T12:22:24.966Z,16.12
2022-09-21T12:23:24.994Z,16.05
2022-09-21T12:24:28.575Z,16.1
2022-09-21T12:25:24.766Z,16.02
2022-09-21T12:26:25.321Z,16.16
2022-09-21T12:27:25.065Z,16.1
2022-09-21T12:28:24.828Z,16.12
2022-09-21T12:29:25.102Z,16.17
2022-09-21T12:30:25.357Z,16.2
2022-09-21T12:31:25.676Z,16.2
2022-09-21T12:32:25.431Z,16.21
2022-09-21T12:33:25.426Z,16.26
2022-09-21T12:34:25.202Z,16.16
2022-09-21T12:35:25.004Z,16.24
2022-09-21T12:36:25.235Z,16.39
2022-09-21T12:37:25.258Z,16.28
2022-09-21T12:38:25.171Z,16.33
2022-09-21T12:39:25.549Z,16.33
2022-09-21T12:40:25.529Z,16.38
2022-09-21T12:41:25.330Z,16.5
2022-09-21T12:42:25.607Z,16.41
2022-09-21T12:43:25.372Z,16.5
2022-09-21T12:44:25.404Z,16.54
2022-09-21T12:45:25.416Z,16.54
2022-09-21T12:46:25.784Z,16.57
2022-09-21T12:47:25.767Z,16.54
2022-09-21T12:48:25.480Z,16.66
2022-09-21T12:49:25.486Z,16.6
2022-09-21T12:50:25.791Z,16.6
2022-09-21T12:51:25.538Z,16.58
2022-09-21T12:52:25.804Z,16.65
2022-09-21T12:53:25.556Z,16.66
2022-09-21T12:54:25.855Z,16.74
2022-09-21T12:55:25.614Z,16.79
2022-09-21T12:56:25.883Z,16.84
2022-09-21T12:58:15.761Z,16.86
2022-09-21T12:58:25.924Z,16.87